Time;durP1;ratioP1;P1;durP2;ratioP2;P2;SDS_P1;SDS_P2;PMS_P1;PMS_P2;Temp;Humidity;BMP_temperature;BMP_pressure;BME280_temperature;BME280_humidity;BME280_pressure;Samples;Min_cycle;Max_cycle;Signal;HPM_P1;HPM_P2
2022/01/31 00:00:59;;;;;;;12.15;2.47;;;4.30;99.90;;;;;;5038196;28;20348;-67
2022/01/31 00:03:25;;;;;;;9.05;1.67;;;4.20;99.90;;;;;;5036677;28;20486;-67
2022/01/31 00:05:50;;;;;;;5.55;2.22;;;4.20;99.90;;;;;;5038307;28;20026;-67
2022/01/31 00:08:21;;;;;;;2.42;1.40;;;4.20;99.90;;;;;;5035638;28;20128;-67
2022/01/31 00:10:48;;;;;;;5.57;1.38;;;4.20;99.90;;;;;;5037066;28;20059;-67
2022/01/31 00:13:17;;;;;;;3.08;1.23;;;4.10;99.90;;;;;;5034728;28;20125;-67
2022/01/31 00:15:47;;;;;;;2.00;1.05;;;4.00;99.90;;;;;;5038335;28;20064;-67
2022/01/31 00:18:12;;;;;;;3.22;1.50;;;4.00;99.90;;;;;;5038089;28;20120;-67
2022/01/31 00:20:39;;;;;;;3.60;2.22;;;4.00;99.90;;;;;;5038182;28;20457;-67
2022/01/31 00:23:04;;;;;;;2.97;1.23;;;4.00;99.90;;;;;;5041542;28;20108;-67
2022/01/31 00:25:30;;;;;;;3.50;1.40;;;4.00;99.90;;;;;;5037821;28;20068;-67
2022/01/31 00:27:56;;;;;;;1.75;1.10;;;4.10;99.90;;;;;;5039396;28;20032;-67
2022/01/31 00:30:21;;;;;;;6.43;2.92;;;4.10;99.90;;;;;;5042105;28;20098;-67
2022/01/31 00:32:48;;;;;;;1.33;1.13;;;4.10;99.90;;;;;;5037193;28;20568;-67
2022/01/31 00:35:13;;;;;;;0.80;0.80;;;4.10;99.90;;;;;;5041214;28;20037;-67
2022/01/31 00:37:40;;;;;;;7.75;2.28;;;4.20;99.90;;;;;;5041859;28;20537;-67
2022/01/31 00:40:08;;;;;;;2.45;1.20;;;4.20;99.90;;;;;;5041744;28;20489;-67
2022/01/31 00:42:34;;;;;;;2.13;1.27;;;4.20;99.90;;;;;;5038531;28;20026;-67
2022/01/31 00:47:46;;;;;;;4.22;1.60;;;4.30;99.90;;;;;;5041496;28;20476;-67
2022/01/31 00:50:13;;;;;;;1.65;1.10;;;4.20;99.90;;;;;;5040529;28;20059;-67
2022/01/31 00:52:40;;;;;;;11.10;1.92;;;4.30;99.90;;;;;;5037024;28;20032;-67
2022/01/31 00:55:08;;;;;;;1.30;0.82;;;4.30;99.90;;;;;;5040449;28;20029;-67
2022/01/31 00:57:34;;;;;;;13.45;1.80;;;4.30;99.90;;;;;;5041019;28;20048;-67
2022/01/31 00:59:59;;;;;;;1.48;1.02;;;4.40;99.90;;;;;;5043038;28;20025;-67
2022/01/31 01:02:26;;;;;;;13.05;1.83;;;4.40;99.90;;;;;;5037456;28;20508;-67
2022/01/31 01:04:52;;;;;;;0.82;0.82;;;4.40;99.90;;;;;;5043794;28;20128;-67
2022/01/31 01:07:19;;;;;;;4.45;1.38;;;4.40;99.90;;;;;;5050879;28;20032;-67
2022/01/31 01:09:46;;;;;;;4.60;2.22;;;4.40;99.90;;;;;;5035863;28;20538;-67
2022/01/31 01:12:13;;;;;;;0.73;0.73;;;4.40;99.90;;;;;;5038592;28;20762;-67
2022/01/31 01:14:39;;;;;;;3.03;1.38;;;4.40;99.90;;;;;;5041176;28;20052;-67
2022/01/31 01:17:05;;;;;;;2.53;1.35;;;4.40;99.90;;;;;;5037635;28;20107;-67
2022/01/31 01:19:31;;;;;;;4.05;1.70;;;4.40;99.90;;;;;;5045700;28;20055;-67
2022/01/31 01:21:57;;;;;;;2.38;1.35;;;4.40;99.90;;;;;;5039081;28;20053;-67
2022/01/31 01:24:22;;;;;;;1.98;1.13;;;4.40;99.90;;;;;;5038299;28;20040;-67
2022/01/31 01:26:48;;;;;;;1.20;0.98;;;4.40;99.90;;;;;;5040425;28;20115;-67
2022/01/31 01:29:15;;;;;;;1.92;1.33;;;4.50;99.90;;;;;;5037203;28;20021;-67
2022/01/31 01:31:43;;;;;;;3.78;1.45;;;4.40;99.90;;;;;;5039862;28;20444;-67
2022/01/31 01:34:09;;;;;;;1.15;0.95;;;4.40;99.90;;;;;;5039186;28;20017;-67
2022/01/31 01:36:35;;;;;;;9.55;1.98;;;4.40;99.90;;;;;;5039459;28;20032;-67
2022/01/31 01:39:00;;;;;;;2.15;1.23;;;4.40;99.90;;;;;;5041726;28;20047;-67
2022/01/31 01:41:26;;;;;;;2.33;1.48;;;4.40;99.90;;;;;;5038446;28;20029;-67
2022/01/31 01:43:52;;;;;;;8.07;4.30;;;4.40;99.90;;;;;;5040929;28;20025;-67
2022/01/31 01:46:17;;;;;;;1.63;1.20;;;4.30;99.90;;;;;;5038306;28;20021;-67
2022/01/31 01:48:43;;;;;;;3.55;1.83;;;4.40;99.90;;;;;;5040671;28;20104;-67
2022/01/31 01:51:08;;;;;;;19.58;1.77;;;4.40;99.90;;;;;;5036225;28;20025;-67
2022/01/31 01:53:34;;;;;;;2.17;1.63;;;4.40;99.90;;;;;;5037189;28;20024;-67
2022/01/31 01:56:00;;;;;;;5.00;1.10;;;4.40;99.90;;;;;;5041114;28;20392;-67
2022/01/31 01:58:30;;;;;;;8.82;1.35;;;4.40;99.90;;;;;;5042503;28;20722;-67
2022/01/31 02:00:59;;;;;;;2.00;1.42;;;4.40;99.90;;;;;;5040450;28;20013;-67
2022/01/31 02:03:29;;;;;;;3.47;1.52;;;4.40;99.90;;;;;;5039496;28;20057;-67
2022/01/31 02:05:55;;;;;;;6.35;1.85;;;4.40;99.90;;;;;;5040504;28;20040;-67
2022/01/31 02:08:21;;;;;;;6.07;1.80;;;4.50;99.90;;;;;;5040528;28;20025;-67
2022/01/31 02:10:48;;;;;;;4.20;1.52;;;4.50;99.90;;;;;;5034113;28;20132;-67
2022/01/31 02:13:17;;;;;;;3.13;1.20;;;4.50;99.90;;;;;;5038968;28;20033;-67
2022/01/31 02:15:50;;;;;;;2.67;1.17;;;4.60;99.90;;;;;;5037831;28;20057;-67
2022/01/31 02:18:18;;;;;;;8.75;2.35;;;4.60;99.90;;;;;;5038451;28;20100;-67
2022/01/31 02:20:44;;;;;;;2.22;1.10;;;4.60;99.90;;;;;;5041297;28;20491;-67
2022/01/31 02:23:12;;;;;;;3.70;1.70;;;4.60;99.90;;;;;;5040511;28;20018;-67
2022/01/31 02:25:57;;;;;;;5.13;2.03;;;4.60;99.90;;;;;;5036294;28;20033;-67
2022/01/31 02:28:26;;;;;;;4.70;1.70;;;4.60;99.90;;;;;;5036541;28;20516;-67
2022/01/31 02:30:52;;;;;;;2.40;1.70;;;4.60;99.90;;;;;;5037960;28;20104;-67
2022/01/31 02:33:19;;;;;;;4.43;1.70;;;4.60;99.90;;;;;;5039252;28;20044;-67
2022/01/31 02:35:46;;;;;;;1.25;1.08;;;4.50;99.90;;;;;;5037335;28;20025;-67
2022/01/31 02:38:12;;;;;;;3.60;1.50;;;4.40;99.90;;;;;;5035083;28;20068;-66
2022/01/31 02:40:37;;;;;;;7.70;1.67;;;4.20;99.90;;;;;;5042647;28;20389;-67
2022/01/31 02:43:03;;;;;;;0.73;0.73;;;4.00;99.90;;;;;;5036214;28;20075;-67
2022/01/31 02:45:30;;;;;;;8.15;2.25;;;3.90;99.90;;;;;;5042011;28;20103;-66
2022/01/31 02:47:58;;;;;;;11.73;2.10;;;3.80;99.90;;;;;;5038779;28;20382;-66
2022/01/31 02:50:24;;;;;;;11.32;1.48;;;3.70;99.90;;;;;;5034444;28;20493;-66
2022/01/31 02:52:59;;;;;;;1.15;0.90;;;3.70;99.90;;;;;;5034989;28;20482;-66
2022/01/31 02:55:25;;;;;;;5.80;2.28;;;3.70;99.90;;;;;;5037627;28;20025;-66
2022/01/31 02:57:51;;;;;;;3.60;1.50;;;3.60;99.90;;;;;;5038990;28;20047;-65
2022/01/31 03:00:17;;;;;;;3.30;1.83;;;3.50;99.90;;;;;;5036502;28;20018;-66
2022/01/31 03:02:43;;;;;;;2.78;1.63;;;3.50;99.90;;;;;;5040858;28;20029;-66
2022/01/31 03:05:08;;;;;;;3.13;1.52;;;3.30;99.90;;;;;;5037433;28;20104;-66
2022/01/31 03:07:34;;;;;;;2.05;1.00;;;3.40;99.90;;;;;;5039905;28;20037;-65
2022/01/31 03:10:01;;;;;;;3.40;1.75;;;3.10;99.90;;;;;;5041186;28;20461;-65
2022/01/31 03:12:28;;;;;;;1.00;0.95;;;3.10;99.90;;;;;;5034880;28;20393;-65
2022/01/31 03:14:53;;;;;;;3.55;1.83;;;3.10;99.90;;;;;;5037381;28;20542;-65
2022/01/31 03:17:19;;;;;;;1.60;1.13;;;3.10;99.90;;;;;;5031536;28;20022;-65
2022/01/31 03:19:52;;;;;;;2.63;1.33;;;3.00;99.90;;;;;;5035863;28;20086;-65
2022/01/31 03:22:19;;;;;;;9.52;3.00;;;3.00;99.90;;;;;;5036641;28;20017;-65
2022/01/31 03:24:45;;;;;;;2.47;1.45;;;2.90;99.90;;;;;;5039900;28;20028;-65
2022/01/31 03:27:11;;;;;;;2.22;1.15;;;2.80;99.90;;;;;;5031053;28;20067;-65
2022/01/31 03:29:36;;;;;;;7.15;3.22;;;2.70;99.90;;;;;;5033132;28;20425;-64
2022/01/31 03:32:03;;;;;;;10.43;2.05;;;2.70;99.90;;;;;;5038537;28;20033;-65
2022/01/31 03:34:28;;;;;;;2.20;1.20;;;2.60;99.90;;;;;;5035861;28;20025;-65
2022/01/31 03:36:54;;;;;;;5.53;2.00;;;2.50;99.90;;;;;;5040934;28;20009;-64
2022/01/31 03:39:19;;;;;;;6.07;2.53;;;2.40;99.90;;;;;;5032032;28;20075;-64
2022/01/31 03:41:45;;;;;;;2.70;1.38;;;2.30;99.90;;;;;;5039954;28;20028;-64
2022/01/31 03:44:10;;;;;;;1.70;1.00;;;2.30;99.90;;;;;;5033817;28;20025;-64
2022/01/31 03:46:38;;;;;;;5.45;1.88;;;2.20;99.90;;;;;;5038241;28;20108;-64
2022/01/31 03:49:04;;;;;;;3.67;1.48;;;2.20;99.90;;;;;;5038147;28;20093;-65
2022/01/31 03:51:29;;;;;;;3.33;1.40;;;2.10;99.90;;;;;;5030880;28;20433;-65
2022/01/31 03:53:55;;;;;;;2.70;1.52;;;2.10;99.90;;;;;;5039766;28;20451;-65
2022/01/31 03:56:21;;;;;;;3.83;1.73;;;2.10;99.90;;;;;;5037407;28;20025;-65
2022/01/31 03:58:46;;;;;;;3.78;2.05;;;2.00;99.90;;;;;;5034134;28;20072;-65
2022/01/31 04:01:12;;;;;;;4.80;1.60;;;2.10;99.90;;;;;;5039701;28;20072;-65
2022/01/31 04:03:37;;;;;;;2.78;1.58;;;2.10;99.90;;;;;;5037306;28;20108;-65
2022/01/31 04:06:03;;;;;;;2.17;1.20;;;1.90;99.90;;;;;;5036632;28;20436;-65
2022/01/31 04:08:29;;;;;;;3.30;1.42;;;2.00;99.90;;;;;;5035447;28;20068;-65
2022/01/31 04:10:54;;;;;;;2.90;1.95;;;2.00;99.90;;;;;;5035752;28;20032;-65
2022/01/31 04:13:20;;;;;;;4.80;2.10;;;2.10;99.90;;;;;;5038408;28;20116;-65
2022/01/31 04:15:45;;;;;;;0.80;0.75;;;2.20;99.90;;;;;;5039903;28;20022;-66
2022/01/31 04:18:11;;;;;;;3.50;1.60;;;2.20;99.90;;;;;;5040447;28;20056;-65
2022/01/31 04:20:37;;;;;;;2.63;1.23;;;2.30;99.90;;;;;;5040171;28;20484;-65
2022/01/31 04:23:11;;;;;;;3.38;1.73;;;2.30;99.90;;;;;;5034509;28;20026;-65
2022/01/31 04:25:53;;;;;;;1.85;1.10;;;2.40;99.90;;;;;;5031024;28;20028;-65
2022/01/31 04:28:25;;;;;;;4.03;1.88;;;2.50;99.90;;;;;;5037582;28;20063;-65
2022/01/31 04:30:58;;;;;;;2.38;1.25;;;2.60;99.90;;;;;;5032189;28;20029;-65
2022/01/31 04:33:25;;;;;;;2.58;1.42;;;2.60;99.90;;;;;;5034933;28;20057;-65
2022/01/31 04:35:52;;;;;;;4.53;1.77;;;2.80;99.90;;;;;;5039539;28;20030;-65
2022/01/31 04:38:18;;;;;;;2.80;1.33;;;2.90;99.90;;;;;;5035573;28;20031;-65
2022/01/31 04:40:44;;;;;;;2.97;1.50;;;3.00;99.90;;;;;;5038241;28;20024;-66
2022/01/31 04:43:10;;;;;;;3.03;1.48;;;3.00;99.90;;;;;;5039596;28;20500;-66
2022/01/31 04:45:35;;;;;;;3.03;1.75;;;3.30;99.90;;;;;;5039443;28;20438;-66
2022/01/31 04:48:01;;;;;;;5.13;2.33;;;3.30;99.90;;;;;;5040489;28;20399;-66
2022/01/31 04:50:27;;;;;;;1.60;1.40;;;3.50;99.90;;;;;;5037900;28;20024;-66
2022/01/31 04:52:52;;;;;;;4.15;1.77;;;3.60;99.90;;;;;;5034520;28;20053;-66
2022/01/31 04:55:18;;;;;;;1.90;1.35;;;3.70;99.90;;;;;;5035615;28;20029;-66
2022/01/31 04:57:44;;;;;;;3.60;1.77;;;3.80;99.90;;;;;;5035214;28;20029;-66
2022/01/31 05:00:11;;;;;;;7.05;2.22;;;3.80;99.90;;;;;;5029405;28;20049;-66
2022/01/31 05:02:36;;;;;;;2.83;1.27;;;3.90;99.90;;;;;;5036802;28;20539;-66
2022/01/31 05:05:03;;;;;;;1.70;1.13;;;4.00;99.90;;;;;;5031908;28;20056;-66
2022/01/31 05:07:29;;;;;;;6.35;2.13;;;4.00;99.90;;;;;;5018254;28;20055;-66
2022/01/31 05:09:55;;;;;;;0.98;0.93;;;4.10;99.90;;;;;;5033477;28;20457;-66
2022/01/31 05:12:21;;;;;;;2.75;1.65;;;4.10;99.90;;;;;;5032793;28;20495;-66
2022/01/31 05:14:46;;;;;;;7.28;2.97;;;4.20;99.90;;;;;;5033190;28;20377;-66
2022/01/31 05:17:12;;;;;;;2.03;1.63;;;4.30;99.90;;;;;;5028148;28;20021;-66
2022/01/31 05:19:38;;;;;;;11.48;5.07;;;4.30;99.90;;;;;;5032673;28;20022;-66
2022/01/31 05:22:04;;;;;;;4.32;1.60;;;4.30;99.90;;;;;;5034817;28;20477;-66
2022/01/31 05:24:29;;;;;;;6.50;2.42;;;4.50;99.90;;;;;;5027303;28;20053;-66
2022/01/31 05:26:55;;;;;;;13.73;4.90;;;4.50;99.90;;;;;;5034667;28;20025;-66
2022/01/31 05:29:22;;;;;;;4.20;1.30;;;4.50;99.90;;;;;;5031806;28;20017;-65
2022/01/31 05:31:48;;;;;;;6.13;2.25;;;4.50;99.90;;;;;;5030368;28;20506;-66
2022/01/31 05:34:15;;;;;;;15.10;6.95;;;4.60;99.90;;;;;;5030384;28;20018;-66
2022/01/31 05:36:41;;;;;;;4.20;2.78;;;4.60;99.90;;;;;;5038558;28;20092;-66
2022/01/31 05:39:07;;;;;;;9.38;3.50;;;4.60;99.90;;;;;;5035347;28;20017;-67
2022/01/31 05:41:33;;;;;;;10.93;2.83;;;4.70;99.90;;;;;;5034337;28;20013;-66
2022/01/31 05:43:59;;;;;;;5.43;2.47;;;4.60;99.90;;;;;;5036172;28;20018;-66
2022/01/31 05:46:25;;;;;;;4.20;2.20;;;4.70;99.90;;;;;;5032862;28;20030;-66
2022/01/31 05:48:51;;;;;;;7.25;3.55;;;4.70;99.90;;;;;;5033693;28;20025;-66
2022/01/31 05:51:20;;;;;;;3.95;2.28;;;4.80;99.90;;;;;;5033787;28;20042;-66
2022/01/31 05:53:48;;;;;;;5.45;3.75;;;4.80;99.90;;;;;;5030935;28;20025;-66
2022/01/31 05:56:15;;;;;;;26.25;3.83;;;4.80;99.90;;;;;;5042186;28;20109;-67
2022/01/31 05:58:42;;;;;;;12.35;5.20;;;4.80;99.90;;;;;;5036936;28;20046;-66
2022/01/31 06:01:08;;;;;;;3.47;1.83;;;4.80;99.90;;;;;;5038043;28;20450;-66
2022/01/31 06:03:34;;;;;;;12.20;5.70;;;4.90;99.90;;;;;;5026952;28;20144;-66
2022/01/31 06:06:00;;;;;;;11.20;4.72;;;4.90;99.90;;;;;;5032764;28;20044;-66
2022/01/31 06:08:25;;;;;;;12.25;3.80;;;5.00;99.90;;;;;;5032678;28;20104;-67
2022/01/31 06:10:51;;;;;;;2.72;1.73;;;5.00;99.90;;;;;;5031317;28;20026;-66
2022/01/31 06:13:23;;;;;;;8.43;3.67;;;5.00;99.90;;;;;;5030918;28;20052;-66
2022/01/31 06:15:49;;;;;;;2.45;1.63;;;5.00;99.90;;;;;;5022371;28;20053;-67
2022/01/31 06:18:15;;;;;;;1.98;1.27;;;5.00;99.90;;;;;;5030092;28;20026;-66
2022/01/31 06:20:41;;;;;;;4.72;1.85;;;5.00;99.90;;;;;;5030377;28;20501;-66
2022/01/31 06:23:06;;;;;;;3.42;1.55;;;5.00;99.90;;;;;;5031631;28;20021;-66
2022/01/31 06:25:34;;;;;;;7.45;2.80;;;5.00;99.90;;;;;;5028131;28;20493;-67
2022/01/31 06:27:59;;;;;;;13.80;3.42;;;5.00;99.90;;;;;;5029912;28;20435;-67
2022/01/31 06:30:25;;;;;;;7.55;3.83;;;5.00;99.90;;;;;;5031541;28;20116;-67
2022/01/31 06:32:53;;;;;;;4.18;1.35;;;5.10;99.90;;;;;;5038082;28;20060;-67
2022/01/31 06:35:19;;;;;;;3.50;1.45;;;5.00;99.90;;;;;;5035526;28;20033;-67
2022/01/31 06:37:44;;;;;;;4.28;1.75;;;5.00;99.90;;;;;;5035162;28;20577;-66
2022/01/31 06:40:10;;;;;;;7.15;2.60;;;5.00;99.90;;;;;;5035332;28;20025;-66
2022/01/31 06:42:36;;;;;;;6.40;2.70;;;5.00;99.90;;;;;;5034703;28;20021;-66
2022/01/31 06:45:03;;;;;;;12.00;3.55;;;5.00;99.90;;;;;;5040179;28;20108;-66
2022/01/31 06:47:29;;;;;;;2.72;1.58;;;5.00;99.90;;;;;;5031595;28;20117;-66
2022/01/31 06:49:54;;;;;;;6.18;2.40;;;5.00;99.90;;;;;;5037311;28;20540;-67
2022/01/31 06:52:20;;;;;;;8.93;3.55;;;5.00;99.90;;;;;;5041670;28;20474;-67
2022/01/31 06:54:50;;;;;;;8.23;2.90;;;5.00;99.90;;;;;;5037211;28;20712;-66
2022/01/31 06:57:16;;;;;;;6.07;3.25;;;5.00;99.90;;;;;;5037547;28;20014;-66
2022/01/31 06:59:42;;;;;;;11.20;4.25;;;;;;;;;;5037766;28;20042;-66
2022/01/31 07:02:11;;;;;;;8.27;3.17;;;5.00;99.90;;;;;;5033593;28;20112;-67
2022/01/31 07:04:36;;;;;;;5.95;2.88;;;5.00;99.90;;;;;;5033381;28;20060;-66
2022/01/31 07:07:03;;;;;;;12.65;3.58;;;4.90;99.90;;;;;;5033394;28;20064;-66
2022/01/31 07:09:28;;;;;;;6.70;3.28;;;5.00;99.90;;;;;;5028258;28;20018;-66
2022/01/31 07:11:58;;;;;;;12.32;3.97;;;4.90;99.90;;;;;;5035678;28;20025;-66
2022/01/31 07:14:30;;;;;;;8.13;1.92;;;4.90;99.90;;;;;;5033380;28;20112;-65
2022/01/31 07:17:04;;;;;;;9.48;3.55;;;4.90;99.90;;;;;;5030476;28;20025;-65
2022/01/31 07:19:33;;;;;;;8.98;3.38;;;4.90;99.90;;;;;;5027847;28;20009;-65
2022/01/31 07:21:59;;;;;;;3.33;1.60;;;4.90;99.90;;;;;;5030552;28;20446;-65
2022/01/31 07:24:42;;;;;;;5.85;2.17;;;4.80;99.90;;;;;;5028144;28;20493;-65
2022/01/31 07:27:08;;;;;;;15.00;5.38;;;4.70;99.90;;;;;;5034202;28;20427;-65
2022/01/31 07:29:33;;;;;;;4.85;1.83;;;4.60;99.90;;;;;;5033117;28;20021;-66
2022/01/31 07:32:00;;;;;;;3.20;1.52;;;4.50;99.90;;;;;;5032482;28;20033;-66
2022/01/31 07:34:26;;;;;;;5.63;1.90;;;4.30;99.90;;;;;;5032072;28;20083;-66
2022/01/31 07:36:53;;;;;;;6.65;2.45;;;4.30;99.90;;;;;;5032914;28;20491;-66
2022/01/31 07:39:19;;;;;;;8.10;3.42;;;4.30;99.90;;;;;;5022970;28;20070;-66
2022/01/31 07:41:47;;;;;;;9.18;2.63;;;4.30;99.90;;;;;;5026445;28;20017;-66
2022/01/31 07:44:12;;;;;;;7.25;3.17;;;4.30;99.90;;;;;;5026447;28;20029;-66
2022/01/31 07:46:38;;;;;;;3.40;1.40;;;4.20;99.90;;;;;;5029746;28;20040;-66
2022/01/31 07:49:05;;;;;;;4.05;1.42;;;4.20;99.90;;;;;;5026704;28;20624;-66
2022/01/31 07:51:31;;;;;;;11.60;2.75;;;4.20;99.90;;;;;;5030970;28;20901;-67
2022/01/31 07:53:57;;;;;;;5.88;2.17;;;4.20;99.90;;;;;;5033112;28;20120;-66
2022/01/31 07:56:23;;;;;;;3.55;1.88;;;4.10;99.90;;;;;;5029812;28;20112;-66
2022/01/31 07:58:48;;;;;;;2.05;1.02;;;4.10;99.90;;;;;;5028237;28;20375;-66
2022/01/31 08:01:14;;;;;;;5.25;1.42;;;4.00;99.90;;;;;;5026027;28;20029;-66
2022/01/31 08:03:40;;;;;;;1.58;0.93;;;3.90;99.90;;;;;;5031900;28;20033;-66
2022/01/31 08:06:07;;;;;;;13.23;3.30;;;3.90;99.90;;;;;;5034857;28;20026;-66
2022/01/31 08:08:34;;;;;;;7.85;2.83;;;3.90;99.90;;;;;;5034012;28;20051;-66
2022/01/31 08:11:03;;;;;;;7.57;3.05;;;3.90;99.90;;;;;;5025788;28;20543;-67
2022/01/31 08:13:30;;;;;;;3.63;2.03;;;3.90;99.90;;;;;;5040106;28;20029;-66
2022/01/31 08:16:02;;;;;;;10.27;3.13;;;3.90;99.90;;;;;;5032932;28;20112;-66
2022/01/31 08:18:29;;;;;;;8.23;2.78;;;4.00;99.90;;;;;;5041016;28;20018;-66
2022/01/31 08:20:55;;;;;;;3.28;1.83;;;4.00;99.90;;;;;;5038463;28;20026;-66
2022/01/31 08:23:21;;;;;;;1.88;1.27;;;4.00;99.90;;;;;;5040584;28;20044;-66
2022/01/31 08:25:49;;;;;;;1.48;1.13;;;4.00;99.90;;;;;;5026327;28;20066;-66
2022/01/31 08:28:19;;;;;;;2.42;1.60;;;4.00;99.90;;;;;;5033002;28;20087;-66
2022/01/31 08:33:25;;;;;;;1.13;1.02;;;4.00;99.90;;;;;;5037375;28;20049;-66
2022/01/31 08:35:52;;;;;;;5.65;2.30;;;3.90;99.90;;;;;;5033711;28;20037;-66
2022/01/31 08:38:19;;;;;;;10.93;3.88;;;4.00;99.90;;;;;;5029744;28;20513;-66
2022/01/31 08:40:45;;;;;;;3.40;1.52;;;3.90;99.90;;;;;;5041086;28;20033;-66
2022/01/31 08:43:14;;;;;;;5.93;2.47;;;4.00;99.90;;;;;;5041409;28;20044;-66
2022/01/31 08:45:40;;;;;;;6.03;2.78;;;4.00;99.90;;;;;;5034673;28;20112;-66
2022/01/31 08:48:07;;;;;;;2.97;1.55;;;4.00;99.90;;;;;;5043709;28;20133;-66
2022/01/31 08:50:34;;;;;;;5.65;2.80;;;4.00;99.90;;;;;;5038468;28;20030;-66
2022/01/31 08:53:00;;;;;;;5.10;2.08;;;4.00;99.90;;;;;;5036839;28;20474;-66
2022/01/31 08:55:27;;;;;;;5.65;1.73;;;4.00;99.90;;;;;;5033183;28;20065;-66
2022/01/31 08:57:55;;;;;;;8.38;3.55;;;4.00;99.90;;;;;;5036947;28;20030;-66
2022/01/31 09:00:22;;;;;;;5.22;2.38;;;4.10;99.90;;;;;;5036181;28;20444;-66
2022/01/31 09:03:02;;;;;;;19.00;2.47;;;4.10;99.90;;;;;;5039587;28;20028;-66
2022/01/31 09:05:29;;;;;;;0.80;0.75;;;4.10;99.90;;;;;;5029122;28;20116;-66
2022/01/31 09:07:55;;;;;;;7.03;3.35;;;4.10;99.90;;;;;;5036582;28;20091;-66
2022/01/31 09:10:22;;;;;;;4.72;2.50;;;4.10;99.90;;;;;;5039797;28;20025;-66
2022/01/31 09:12:47;;;;;;;15.38;4.68;;;4.10;99.90;;;;;;5037167;28;20132;-66
2022/01/31 09:15:13;;;;;;;0.80;0.80;;;4.10;99.90;;;;;;5039380;28;20109;-66
2022/01/31 09:17:42;;;;;;;10.02;4.63;;;4.10;99.90;;;;;;5036212;28;20045;-66
2022/01/31 09:20:08;;;;;;;13.95;4.95;;;4.20;99.90;;;;;;5039022;28;20501;-66
2022/01/31 09:22:34;;;;;;;8.57;3.15;;;4.10;99.90;;;;;;5034456;28;20037;-66
2022/01/31 09:24:59;;;;;;;6.20;2.42;;;4.10;99.90;;;;;;5037629;28;20025;-66
2022/01/31 09:27:27;;;;;;;5.10;2.53;;;4.10;99.90;;;;;;5034725;28;20164;-66
2022/01/31 09:29:52;;;;;;;12.00;4.20;;;4.20;99.90;;;;;;5037751;28;20055;-66
2022/01/31 09:32:24;;;;;;;4.82;1.85;;;4.20;99.90;;;;;;5022068;28;20129;-66
2022/01/31 09:34:50;;;;;;;9.05;3.15;;;4.20;99.90;;;;;;5021822;28;20057;-66
2022/01/31 09:37:19;;;;;;;6.07;2.72;;;4.20;99.90;;;;;;5020261;28;20345;-66
2022/01/31 09:39:46;;;;;;;8.77;2.00;;;4.20;99.90;;;;;;5019741;28;20418;-66
2022/01/31 09:42:15;;;;;;;5.80;2.60;;;4.20;99.90;;;;;;5018538;28;20045;-66
2022/01/31 09:48:31;;;;;;;1.95;1.20;;;4.30;99.90;;;;;;5019005;28;20113;-66
2022/01/31 09:49:55;;;;;;;6.88;3.15;;;4.30;99.90;;;;;;5019620;28;20085;-66
2022/01/31 09:52:21;;;;;;;6.40;2.78;;;4.30;99.90;;;;;;5026798;28;20120;-66
2022/01/31 09:54:48;;;;;;;10.05;4.15;;;4.30;99.90;;;;;;5021088;28;20030;-66
2022/01/31 09:57:16;;;;;;;9.95;3.88;;;4.30;99.90;;;;;;5020517;28;20026;-66
2022/01/31 09:59:41;;;;;;;7.57;2.35;;;4.30;99.90;;;;;;5025833;28;20026;-67
2022/01/31 10:02:12;;;;;;;9.80;3.38;;;4.40;99.90;;;;;;5023199;28;20052;-68
2022/01/31 10:04:42;;;;;;;;;;;4.40;99.90;;;;;;5022239;28;20490;-67
2022/01/31 10:07:08;;;;;;;4.95;1.70;;;4.40;99.90;;;;;;5021328;28;19916;-68
2022/01/31 10:09:34;;;;;;;8.45;3.22;;;4.40;99.90;;;;;;5041313;28;20030;-68
2022/01/31 10:12:11;;;;;;;7.38;2.90;;;4.40;99.90;;;;;;5018733;28;20116;-68
2022/01/31 10:17:36;;;;;;;7.50;3.03;;;4.50;99.90;;;;;;5021890;28;20025;-67
2022/01/31 10:20:09;;;;;;;5.75;1.52;;;4.50;99.90;;;;;;5020797;28;20034;-68
2022/01/31 10:22:44;;;;;;;6.20;1.83;;;4.50;99.90;;;;;;5022572;28;20049;-68
2022/01/31 10:25:16;;;;;;;10.68;4.30;;;4.60;99.90;;;;;;5020313;28;20394;-68
2022/01/31 10:27:47;;;;;;;9.98;2.28;;;4.60;99.90;;;;;;5020112;28;20135;-67
2022/01/31 10:30:16;;;;;;;10.65;3.38;;;4.50;99.90;;;;;;5023473;28;20057;-67
2022/01/31 10:32:45;;;;;;;6.72;2.70;;;4.60;99.90;;;;;;5026685;28;20037;-68
2022/01/31 10:35:22;;;;;;;7.38;2.47;;;4.60;99.90;;;;;;5024498;28;20390;-67
2022/01/31 10:37:50;;;;;;;6.38;1.95;;;4.60;99.90;;;;;;5039966;28;20032;-67
2022/01/31 10:46:21;;;;;;;2.45;1.40;;;4.60;99.90;;;;;;5021817;28;20081;-68
2022/01/31 10:57:01;;;;;;;5.13;2.00;;;4.60;99.90;;;;;;5017326;28;20021;-68
2022/01/31 10:59:37;;;;;;;7.28;2.55;;;4.60;99.90;;;;;;5018869;28;20153;-67
2022/01/31 11:02:06;;;;;;;6.07;2.30;;;4.60;99.90;;;;;;5019455;28;20014;-68
2022/01/31 11:04:38;;;;;;;6.78;2.33;;;4.60;99.90;;;;;;5020055;28;20030;-68
2022/01/31 11:07:10;;;;;;;6.25;2.03;;;4.60;99.90;;;;;;5019570;28;20036;-68
2022/01/31 11:09:37;;;;;;;2.78;1.33;;;4.60;99.90;;;;;;5012660;28;20029;-68
2022/01/31 11:12:05;;;;;;;2.17;0.93;;;4.60;99.90;;;;;;5021116;28;20040;-68
2022/01/31 11:14:30;;;;;;;1.92;1.30;;;4.70;99.90;;;;;;5032139;28;20413;-69
2022/01/31 11:16:56;;;;;;;6.45;1.85;;;4.60;99.90;;;;;;5037297;28;20033;-68
2022/01/31 11:19:31;;;;;;;8.38;1.80;;;4.60;99.90;;;;;;5039285;28;20021;-68
2022/01/31 11:22:04;;;;;;;1.40;0.85;;;4.60;99.90;;;;;;5030765;28;20041;-68
2022/01/31 11:24:42;;;;;;;5.50;1.60;;;4.70;99.90;;;;;;5033801;28;20109;-68
2022/01/31 11:27:10;;;;;;;8.27;2.35;;;4.70;99.90;;;;;;5037898;28;20487;-68
2022/01/31 11:29:40;;;;;;;1.38;0.90;;;4.70;99.90;;;;;;5030489;28;20485;-68
2022/01/31 11:32:07;;;;;;;3.03;1.20;;;4.80;99.90;;;;;;5034058;28;20485;-68
2022/01/31 11:34:37;;;;;;;1.75;0.93;;;4.80;99.90;;;;;;5033957;28;20022;-67
2022/01/31 11:37:02;;;;;;;5.35;1.40;;;4.80;99.90;;;;;;5035427;28;20041;-67
2022/01/31 11:39:29;;;;;;;3.03;1.40;;;4.80;99.90;;;;;;5034085;28;20028;-68
2022/01/31 11:42:00;;;;;;;1.75;0.80;;;4.80;99.90;;;;;;5034110;28;20060;-68
2022/01/31 11:44:32;;;;;;;0.85;0.75;;;4.80;99.90;;;;;;5032742;28;20501;-67
2022/01/31 11:47:01;;;;;;;3.53;1.17;;;4.80;99.90;;;;;;5020257;28;20069;-67
2022/01/31 11:49:43;;;;;;;1.67;0.95;;;4.80;99.90;;;;;;5031295;28;20565;-67
2022/01/31 11:52:08;;;;;;;3.83;1.27;;;4.90;99.90;;;;;;5033840;28;20496;-67
2022/01/31 11:54:44;;;;;;;0.70;0.70;;;4.90;99.90;;;;;;5030613;28;20030;-67
2022/01/31 11:57:16;;;;;;;4.32;1.50;;;4.90;99.90;;;;;;5027625;28;20029;-67
2022/01/31 11:59:42;;;;;;;0.90;0.80;;;4.90;99.90;;;;;;5032973;28;20014;-67
2022/01/31 12:02:12;;;;;;;0.70;0.70;;;4.90;99.90;;;;;;5034151;28;20423;-67
2022/01/31 12:04:44;;;;;;;0.60;0.60;;;4.90;99.90;;;;;;5030788;28;20034;-67
2022/01/31 12:07:43;;;;;;;2.45;1.10;;;5.00;99.90;;;;;;5031511;28;20032;-67
2022/01/31 12:10:16;;;;;;;1.80;0.90;;;5.00;99.90;;;;;;5013928;28;20392;-67
2022/01/31 12:23:53;;;;;;;0.87;0.67;;;5.00;99.90;;;;;;5038629;28;20029;-68
2022/01/31 12:26:47;;;;;;;1.23;0.85;;;5.00;99.90;;;;;;5030435;28;20075;-67
2022/01/31 12:29:18;;;;;;;1.15;0.85;;;5.10;99.90;;;;;;5026969;28;20105;-68
2022/01/31 12:31:53;;;;;;;1.55;1.13;;;5.00;99.90;;;;;;5032586;28;20036;-67
2022/01/31 12:34:22;;;;;;;3.60;0.98;;;5.00;99.90;;;;;;5040376;28;20053;-67
2022/01/31 12:36:53;;;;;;;0.68;0.68;;;5.00;99.90;;;;;;5030093;28;20053;-67
2022/01/31 12:39:31;;;;;;;6.68;1.40;;;5.10;99.90;;;;;;5033554;28;20115;-67
2022/01/31 12:42:14;;;;;;;2.75;0.70;;;5.10;99.90;;;;;;5034417;28;20107;-67
2022/01/31 12:44:42;;;;;;;3.80;1.05;;;5.20;99.90;;;;;;5040346;28;20029;-67
2022/01/31 12:47:11;;;;;;;3.03;1.60;;;5.10;99.90;;;;;;5038781;28;20422;-67
2022/01/31 12:49:37;;;;;;;2.40;0.90;;;5.10;99.90;;;;;;5034683;28;20017;-67
2022/01/31 12:52:08;;;;;;;3.50;0.80;;;5.10;99.90;;;;;;5033540;28;20025;-68
2022/01/31 12:54:38;;;;;;;2.67;1.35;;;5.20;99.90;;;;;;5037754;28;20030;-67
2022/01/31 12:57:07;;;;;;;1.70;0.85;;;5.20;99.90;;;;;;5039156;28;20398;-67
2022/01/31 12:59:34;;;;;;;2.97;1.02;;;5.10;99.90;;;;;;5037998;28;20366;-67
2022/01/31 13:02:04;;;;;;;1.27;0.90;;;5.00;99.90;;;;;;5030682;28;20379;-67
2022/01/31 13:04:30;;;;;;;1.65;1.10;;;5.10;99.90;;;;;;5036602;28;20030;-67
2022/01/31 13:07:15;;;;;;;0.70;0.70;;;5.20;99.90;;;;;;5032129;28;20025;-67
2022/01/31 13:09:43;;;;;;;1.90;1.08;;;5.20;99.90;;;;;;5034629;28;20420;-67
2022/01/31 13:12:14;;;;;;;1.48;0.93;;;5.30;99.90;;;;;;5037759;28;20378;-67
2022/01/31 13:14:45;;;;;;;2.17;1.02;;;5.30;99.90;;;;;;5039637;28;20870;-67
2022/01/31 13:17:15;;;;;;;8.30;1.77;;;5.20;99.90;;;;;;5034851;28;20103;-67
2022/01/31 13:19:49;;;;;;;4.55;1.98;;;5.20;99.90;;;;;;5040423;28;20025;-67
2022/01/31 13:22:27;;;;;;;2.35;1.13;;;5.30;99.90;;;;;;5040741;28;20026;-67
2022/01/31 13:25:02;;;;;;;3.88;1.58;;;5.20;99.90;;;;;;5040440;28;20385;-67
2022/01/31 13:27:32;;;;;;;3.35;1.75;;;5.20;99.90;;;;;;5039236;28;20017;-67
2022/01/31 13:29:57;;;;;;;4.93;1.50;;;5.20;99.90;;;;;;5023812;28;20573;-68
2022/01/31 13:32:34;;;;;;;1.75;0.98;;;5.20;99.90;;;;;;5017859;28;20117;-67
2022/01/31 13:35:04;;;;;;;6.45;2.25;;;5.20;99.90;;;;;;5029182;28;20021;-67